createdAt,value
2022-12-29T00:02:40.459Z,100548.75
2022-12-29T00:05:20.149Z,100544.59
2022-12-29T00:07:59.949Z,100543.16
2022-12-29T00:10:40.037Z,100542.06
2022-12-29T00:13:38.833Z,100541.38
2022-12-29T00:16:18.629Z,100519.22
2022-12-29T00:19:00.413Z,100505.84
2022-12-29T00:21:57.444Z,100504.75
2022-12-29T00:24:54.730Z,100496.66
2022-12-29T00:27:54.182Z,100494.69
2022-12-29T00:30:52.992Z,100482.88
2022-12-29T00:33:52.942Z,100472.69
2022-12-29T00:36:33.516Z,100479.25
2022-12-29T00:39:35.252Z,100476.59
2022-12-29T00:42:32.824Z,100454.28
2022-12-29T00:45:12.662Z,100449.53
2022-12-29T00:47:52.432Z,100440.91
2022-12-29T00:50:32.302Z,100430.84
2022-12-29T00:53:14.099Z,100413.81
2022-12-29T00:55:55.116Z,100419.81
2022-12-29T00:58:34.932Z,100409.63
2022-12-29T01:01:16.374Z,100397.59
2022-12-29T01:04:02.220Z,100367.19
2022-12-29T01:06:46.015Z,100364.09
2022-12-29T01:09:44.550Z,100344.28
2022-12-29T01:12:46.032Z,100339.53
2022-12-29T01:15:29.509Z,100329.44
2022-12-29T01:18:11.516Z,100321.88
2022-12-29T01:20:52.623Z,100307.66
2022-12-29T01:23:32.587Z,100290.34
2022-12-29T01:26:14.075Z,100288.34
2022-12-29T01:28:55.153Z,100276.09
2022-12-29T01:31:35.025Z,100266.31
2022-12-29T01:34:15.109Z,100256.56
2022-12-29T01:36:56.175Z,100238.84
2022-12-29T01:39:35.975Z,100233.03
2022-12-29T01:42:16.931Z,100215.47
2022-12-29T01:44:59.248Z,100220.22
2022-12-29T01:47:40.813Z,100207.13
2022-12-29T01:50:24.489Z,100200.63
2022-12-29T01:53:07.694Z,100195.94
2022-12-29T01:55:48.791Z,100192.59
2022-12-29T01:58:30.030Z,100192.91
2022-12-29T02:01:12.579Z,100174.13
2022-12-29T02:03:53.454Z,100175.44
2022-12-29T02:06:34.454Z,100185.34
2022-12-29T02:09:14.670Z,100182.16
2022-12-29T02:11:54.555Z,100192.22
2022-12-29T02:14:36.977Z,100204.63
2022-12-29T02:17:19.581Z,100209.25
2022-12-29T02:20:10.748Z,100218.84
2022-12-29T02:22:52.583Z,100229.75
2022-12-29T02:25:40.871Z,100240.72
2022-12-29T02:28:35.462Z,100256.44
2022-12-29T02:31:17.609Z,100260.59
2022-12-29T02:34:01.758Z,100265.34
2022-12-29T02:36:43.720Z,100258.22
2022-12-29T02:39:25.432Z,100262.69
2022-12-29T02:42:07.417Z,100254.59
2022-12-29T02:44:51.640Z,100257.38
2022-12-29T02:47:36.087Z,100255.56
2022-12-29T02:50:18.763Z,100264.03
2022-12-29T02:53:01.188Z,100255.41
2022-12-29T02:55:49.114Z,100262.06
2022-12-29T02:58:29.656Z,100273.34
2022-12-29T03:01:22.434Z,100295.06
2022-12-29T03:04:16.670Z,100293.97
2022-12-29T03:07:03.100Z,100312.88
2022-12-29T03:09:45.616Z,100339.22
2022-12-29T03:12:47.817Z,100336.56
2022-12-29T03:15:48.491Z,100339.75
2022-12-29T03:18:29.676Z,100352.31
2022-12-29T03:21:13.468Z,100364.88
2022-12-29T03:23:54.268Z,100364.59
2022-12-29T03:26:35.672Z,100363.22
2022-12-29T03:29:15.599Z,100368.22
2022-12-29T03:31:58.489Z,100375.19
2022-12-29T03:34:38.304Z,100380.47
2022-12-29T03:37:20.440Z,100364.28
2022-12-29T03:40:03.177Z,100367.34
2022-12-29T03:42:46.126Z,100353.47
2022-12-29T03:45:27.315Z,100342.72
2022-12-29T03:48:10.558Z,100325.69
2022-12-29T03:50:53.521Z,100309.47
2022-12-29T03:53:34.616Z,100286.13
2022-12-29T03:56:19.540Z,100273.75
2022-12-29T03:59:02.139Z,100256.53
2022-12-29T04:01:45.551Z,100249.94
2022-12-29T04:04:26.578Z,100217.97
2022-12-29T04:07:06.386Z,100214.03
2022-12-29T04:09:46.193Z,100179.63
2022-12-29T04:12:32.425Z,100161.91
2022-12-29T04:15:12.605Z,100137.06
2022-12-29T04:17:53.608Z,100107.56
2022-12-29T04:20:51.157Z,100073.63
2022-12-29T04:23:33.240Z,100046.47
2022-12-29T04:26:15.851Z,100026.91
2022-12-29T04:29:16.075Z,99996.22
2022-12-29T04:32:05.607Z,99971.38
2022-12-29T04:34:50.468Z,99949.50
2022-12-29T04:37:33.624Z,99910.72
2022-12-29T04:40:14.693Z,99890.97
2022-12-29T04:42:55.913Z,99869.94
2022-12-29T04:45:40.951Z,99852.00
2022-12-29T04:48:29.880Z,99825.97
2022-12-29T04:51:24.283Z,99808.53
2022-12-29T04:54:05.569Z,99766.44
2022-12-29T04:56:48.957Z,99734.41
2022-12-29T04:59:31.506Z,99703.75
2022-12-29T05:02:13.093Z,99691.13
2022-12-29T05:04:54.335Z,99657.59
2022-12-29T05:07:36.142Z,99618.72
2022-12-29T05:10:17.908Z,99578.09
2022-12-29T05:12:58.710Z,99556.72
2022-12-29T05:15:40.117Z,99505.09
2022-12-29T05:18:21.477Z,99487.00
2022-12-29T05:21:02.816Z,99456.75
2022-12-29T05:23:42.582Z,99419.06
2022-12-29T05:26:22.420Z,99376.47
2022-12-29T05:29:10.206Z,99353.41
2022-12-29T05:31:51.669Z,99344.63
2022-12-29T05:34:35.017Z,99353.41
2022-12-29T05:37:16.014Z,99371.16
2022-12-29T05:40:00.240Z,99381.06
2022-12-29T05:42:40.582Z,99448.28
2022-12-29T05:45:45.836Z,99515.06
2022-12-29T05:48:43.274Z,99596.19
2022-12-29T05:51:45.964Z,99649.97
2022-12-29T05:54:26.841Z,99718.00
2022-12-29T05:57:06.863Z,99801.41
2022-12-29T05:59:50.101Z,99838.25
2022-12-29T06:02:31.301Z,99894.78
2022-12-29T06:05:12.491Z,99947.19
2022-12-29T06:07:53.925Z,99978.03
2022-12-29T06:10:33.709Z,100022.13
2022-12-29T06:13:18.325Z,100053.97
2022-12-29T06:16:01.354Z,100063.75
2022-12-29T06:18:43.121Z,100092.41
2022-12-29T06:21:24.137Z,100114.94
2022-12-29T06:24:06.992Z,100121.22
2022-12-29T06:26:48.560Z,100132.84
2022-12-29T06:29:28.868Z,100141.94
2022-12-29T06:32:11.593Z,100156.19
2022-12-29T06:34:55.963Z,100155.22
2022-12-29T06:37:36.535Z,100166.66
2022-12-29T06:40:19.254Z,100159.69
2022-12-29T06:43:19.828Z,100166.13
2022-12-29T06:46:16.865Z,100165.31
2022-12-29T06:48:58.239Z,100153.72
2022-12-29T06:51:38.029Z,100161.66
2022-12-29T06:54:19.823Z,100155.38
2022-12-29T06:57:00.850Z,100145.28
2022-12-29T06:59:40.630Z,100134.34
2022-12-29T07:02:23.288Z,100152.06
2022-12-29T07:05:03.441Z,100241.22
2022-12-29T07:07:45.311Z,100227.19
2022-12-29T07:10:26.265Z,100172.03
2022-12-29T07:13:08.031Z,100162.38
2022-12-29T07:15:49.110Z,100185.47
2022-12-29T07:18:28.901Z,100219.38
2022-12-29T07:21:08.686Z,100242.25
2022-12-29T07:23:48.516Z,100264.88
2022-12-29T07:26:35.909Z,100301.72
2022-12-29T07:29:16.196Z,100306.19
2022-12-29T07:31:55.957Z,100340.34
2022-12-29T07:34:35.779Z,100365.03
2022-12-29T07:37:18.557Z,100378.41
2022-12-29T07:39:58.583Z,100388.72
2022-12-29T07:42:40.454Z,100398.63
2022-12-29T07:45:22.974Z,100407.16
2022-12-29T07:48:17.177Z,100418.88
2022-12-29T07:50:58.988Z,100433.09
2022-12-29T07:53:40.073Z,100437.84
2022-12-29T07:56:19.801Z,100432.81
2022-12-29T07:58:59.635Z,100434.38
2022-12-29T08:01:39.680Z,100442.03
2022-12-29T08:04:23.122Z,100440.78
2022-12-29T08:07:03.834Z,100440.38
2022-12-29T08:09:41.793Z,100444.31
2022-12-29T08:12:21.865Z,100450.97
2022-12-29T08:15:01.660Z,100439.84
2022-12-29T08:17:43.547Z,100438.59
2022-12-29T08:20:24.496Z,100440.41
2022-12-29T08:23:04.358Z,100454.91
2022-12-29T08:25:44.088Z,100450.59
2022-12-29T08:28:24.145Z,100454.22
2022-12-29T08:31:07.424Z,100453.94
2022-12-29T08:33:48.319Z,100452.25
2022-12-29T08:36:28.172Z,100451.72
2022-12-29T08:39:07.949Z,100443.78
2022-12-29T08:41:48.339Z,100441.13
2022-12-29T08:44:29.165Z,100439.72
2022-12-29T08:47:08.971Z,100440.56
2022-12-29T08:49:48.776Z,100438.59
2022-12-29T08:52:29.767Z,100427.03
2022-12-29T08:55:10.652Z,100422.34
2022-12-29T08:57:53.645Z,100420.22
2022-12-29T09:00:34.749Z,100397.53
2022-12-29T09:03:21.954Z,100390.97
2022-12-29T09:06:11.627Z,100372.31
2022-12-29T09:08:51.422Z,100356.31
2022-12-29T09:11:31.339Z,100344.88
2022-12-29T09:14:11.095Z,100331.94
2022-12-29T09:17:12.089Z,100325.97
2022-12-29T09:19:53.098Z,100314.94
2022-12-29T09:22:32.902Z,100293.34
2022-12-29T09:25:14.782Z,100272.31
2022-12-29T09:27:55.728Z,100255.72
2022-12-29T09:30:35.471Z,100234.19
2022-12-29T09:33:15.318Z,100216.34
2022-12-29T09:35:57.095Z,100193.44
2022-12-29T09:38:38.161Z,100170.81
2022-12-29T09:41:21.884Z,100146.69
2022-12-29T09:44:05.425Z,100121.41
2022-12-29T09:46:48.355Z,100092.94
2022-12-29T09:49:29.827Z,100082.06
2022-12-29T09:52:12.199Z,100046.66
2022-12-29T09:55:00.483Z,100033.78
2022-12-29T09:57:47.408Z,100022.50
2022-12-29T10:00:30.676Z,100002.16
2022-12-29T10:03:15.190Z,99996.84
2022-12-29T10:05:57.780Z,99996.53
2022-12-29T10:08:39.009Z,99991.59
2022-12-29T10:11:24.794Z,99995.88
2022-12-29T10:14:15.798Z,99985.97
2022-12-29T10:16:58.355Z,99998.59
2022-12-29T10:19:48.921Z,100004.91
2022-12-29T10:22:33.172Z,100013.94
2022-12-29T10:25:14.823Z,100005.56
2022-12-29T10:27:55.677Z,100000.63
2022-12-29T10:30:36.220Z,99998.50
2022-12-29T10:33:19.607Z,99980.47
2022-12-29T10:36:00.452Z,99958.28
2022-12-29T10:38:41.168Z,99929.63
2022-12-29T10:41:26.190Z,99905.41
2022-12-29T10:44:06.295Z,99874.41
2022-12-29T10:46:46.369Z,99829.78
2022-12-29T10:49:29.496Z,99789.81
2022-12-29T10:52:10.692Z,99748.22
2022-12-29T10:54:51.245Z,99697.47
2022-12-29T10:57:33.259Z,99631.78
2022-12-29T11:00:17.389Z,99573.06
2022-12-29T11:03:03.744Z,99526.13
2022-12-29T11:05:46.473Z,99479.72
2022-12-29T11:08:28.294Z,99448.63
2022-12-29T11:11:09.331Z,99419.63
2022-12-29T11:13:50.885Z,99384.66
2022-12-29T11:16:32.790Z,99367.28
2022-12-29T11:19:23.315Z,99336.09
2022-12-29T11:22:14.494Z,99323.84
2022-12-29T11:24:55.177Z,99299.44
2022-12-29T11:27:35.967Z,99286.63
2022-12-29T11:30:25.027Z,99276.66
2022-12-29T11:33:06.260Z,99275.81
2022-12-29T11:35:46.951Z,99266.97
2022-12-29T11:38:35.540Z,99247.94
2022-12-29T11:41:22.033Z,99243.38
2022-12-29T11:44:02.605Z,99203.84
2022-12-29T11:46:47.117Z,99177.94
2022-12-29T11:49:28.148Z,99141.78
2022-12-29T11:52:10.340Z,99128.47
2022-12-29T11:54:50.853Z,99124.56
2022-12-29T11:57:32.729Z,99109.44
2022-12-29T12:00:18.484Z,99096.53
2022-12-29T12:03:00.011Z,99086.69
2022-12-29T12:05:42.010Z,99085.09
2022-12-29T12:08:23.585Z,99080.75
2022-12-29T12:11:06.381Z,99082.59
2022-12-29T12:13:48.900Z,99085.81
2022-12-29T12:16:30.535Z,99074.56
2022-12-29T12:19:14.469Z,99088.66
2022-12-29T12:21:55.917Z,99093.56
2022-12-29T12:24:38.452Z,99077.22
2022-12-29T12:27:21.297Z,99078.47
2022-12-29T12:30:00.260Z,99070.28
2022-12-29T12:32:43.884Z,99081.88
2022-12-29T12:35:26.008Z,99090.69
2022-12-29T12:38:15.820Z,99091.47
2022-12-29T12:41:03.052Z,99093.28
2022-12-29T12:43:45.372Z,99087.50
2022-12-29T12:46:30.107Z,99095.69
2022-12-29T12:49:20.299Z,99106.06
2022-12-29T12:52:05.444Z,99104.41
2022-12-29T12:54:53.238Z,99110.50
2022-12-29T12:57:38.900Z,99114.34
2022-12-29T13:00:24.072Z,99122.31
2022-12-29T13:03:07.134Z,99110.06
2022-12-29T13:05:52.456Z,99124.50
2022-12-29T13:08:49.931Z,99131.84
2022-12-29T13:11:34.849Z,99135.69
2022-12-29T13:14:18.000Z,99147.34
2022-12-29T13:16:59.193Z,99151.63
2022-12-29T13:19:40.733Z,99161.44
2022-12-29T13:22:21.881Z,99174.88
2022-12-29T13:25:08.917Z,99177.34
2022-12-29T13:27:50.677Z,99187.16
2022-12-29T13:30:32.249Z,99190.44
2022-12-29T13:33:21.111Z,99197.78
2022-12-29T13:36:04.545Z,99215.09
2022-12-29T13:38:45.851Z,99215.28
2022-12-29T13:41:29.191Z,99223.06
2022-12-29T13:44:16.655Z,99226.34
2022-12-29T13:46:57.803Z,99242.47
2022-12-29T13:49:38.795Z,99245.13
2022-12-29T13:52:20.551Z,99252.25
2022-12-29T13:55:03.083Z,99254.09
2022-12-29T13:57:43.436Z,99256.94
2022-12-29T14:00:26.805Z,99265.09
2022-12-29T14:03:13.875Z,99280.19
2022-12-29T14:06:06.437Z,99299.78
2022-12-29T14:08:46.189Z,99284.53
2022-12-29T14:11:30.878Z,99299.28
2022-12-29T14:14:16.181Z,99303.75
2022-12-29T14:16:56.865Z,99297.81
2022-12-29T14:19:37.026Z,99308.59
2022-12-29T14:22:32.611Z,99310.16
2022-12-29T14:25:28.453Z,99319.97
2022-12-29T14:28:18.572Z,99327.09
2022-12-29T14:30:59.397Z,99326.47
2022-12-29T14:33:40.863Z,99335.06
2022-12-29T14:36:22.758Z,99345.03
2022-12-29T14:39:05.449Z,99348.03
2022-12-29T14:41:46.326Z,99337.78
2022-12-29T14:44:26.081Z,99338.97
2022-12-29T14:47:27.057Z,99342.19
2022-12-29T14:50:08.787Z,99344.19
2022-12-29T14:53:00.103Z,99355.16
2022-12-29T14:55:47.366Z,99341.91
2022-12-29T14:58:30.049Z,99344.88
2022-12-29T15:01:17.263Z,99354.69
2022-12-29T15:03:58.591Z,99359.16
2022-12-29T15:06:40.516Z,99368.50
2022-12-29T15:09:25.411Z,99368.31
2022-12-29T15:12:11.144Z,99379.47
2022-12-29T15:14:56.673Z,99385.78
2022-12-29T15:17:39.547Z,99391.81
2022-12-29T15:20:24.379Z,99395.50
2022-12-29T15:23:06.693Z,99398.81
2022-12-29T15:25:49.435Z,99405.47
2022-12-29T15:28:29.685Z,99401.16
2022-12-29T15:31:14.530Z,99398.22
2022-12-29T15:33:56.228Z,99408.34
2022-12-29T15:36:39.757Z,99400.91
2022-12-29T15:39:25.824Z,99406.59
2022-12-29T15:42:09.250Z,99408.41
2022-12-29T15:44:54.245Z,99417.06
2022-12-29T15:47:38.568Z,99420.53
2022-12-29T15:50:24.225Z,99426.19
2022-12-29T15:53:06.512Z,99429.00
2022-12-29T15:55:48.643Z,99426.88
2022-12-29T15:58:27.993Z,99434.34
2022-12-29T16:01:18.084Z,99436.47
2022-12-29T16:04:00.806Z,99431.53
2022-12-29T16:06:41.485Z,99433.06
2022-12-29T16:09:32.210Z,99450.47
2022-12-29T16:12:17.587Z,99439.22
2022-12-29T16:15:00.585Z,99448.16
2022-12-29T16:17:44.112Z,99451.47
2022-12-29T16:20:24.976Z,99454.63
2022-12-29T16:23:05.567Z,99463.06
2022-12-29T16:25:45.561Z,99455.63
2022-12-29T16:28:25.831Z,99462.75
2022-12-29T16:31:08.879Z,99481.31
2022-12-29T16:33:50.187Z,99483.31
2022-12-29T16:36:34.158Z,99489.44
2022-12-29T16:39:22.561Z,99492.25
2022-12-29T16:42:03.553Z,99509.16
2022-12-29T16:44:43.207Z,99517.44
2022-12-29T16:47:23.248Z,99542.47
2022-12-29T16:50:15.215Z,99545.25
2022-12-29T16:52:57.465Z,99554.38
2022-12-29T16:55:36.569Z,99560.84
2022-12-29T16:58:18.904Z,99561.84
2022-12-29T17:00:58.271Z,99577.06
2022-12-29T17:03:42.242Z,99580.22
2022-12-29T17:06:24.581Z,99584.69
2022-12-29T17:09:12.501Z,99581.53
2022-12-29T17:12:02.557Z,99575.28
2022-12-29T17:14:46.450Z,99565.16
2022-12-29T17:17:30.491Z,99554.22
2022-12-29T17:20:20.563Z,99550.28
2022-12-29T17:23:01.322Z,99548.28
2022-12-29T17:25:41.150Z,99534.69
2022-12-29T17:28:23.643Z,99541.47
2022-12-29T17:31:04.431Z,99536.34
2022-12-29T17:33:45.561Z,99530.03
2022-12-29T17:36:29.352Z,99532.88
2022-12-29T17:39:09.968Z,99529.38
2022-12-29T17:41:51.205Z,99527.56
2022-12-29T17:44:30.955Z,99516.16
2022-12-29T17:47:10.807Z,99521.78
2022-12-29T17:49:50.583Z,99518.78
2022-12-29T17:52:30.401Z,99520.44
2022-12-29T17:55:13.949Z,99529.38
2022-12-29T17:57:54.855Z,99543.97
2022-12-29T18:00:34.634Z,99561.50
2022-12-29T18:03:16.547Z,99630.38
2022-12-29T18:05:57.442Z,99717.59
2022-12-29T18:08:38.562Z,99822.91
2022-12-29T18:11:21.282Z,99914.44
2022-12-29T18:14:01.671Z,99998.38
2022-12-29T18:16:41.466Z,100092.88
2022-12-29T18:19:21.395Z,100171.16
2022-12-29T18:22:01.080Z,100216.31
2022-12-29T18:24:40.897Z,100259.22
2022-12-29T18:27:22.175Z,100313.78
2022-12-29T18:30:02.099Z,100364.56
2022-12-29T18:32:41.941Z,100409.53
2022-12-29T18:35:24.487Z,100439.06
2022-12-29T18:38:05.898Z,100479.25
2022-12-29T18:40:46.161Z,100505.94
2022-12-29T18:43:26.083Z,100530.84
2022-12-29T18:46:05.874Z,100549.06
2022-12-29T18:48:45.570Z,100571.97
2022-12-29T18:51:28.420Z,100599.50
2022-12-29T18:54:09.960Z,100604.22
2022-12-29T18:56:49.818Z,100631.16
2022-12-29T18:59:29.606Z,100644.78
2022-12-29T19:02:11.134Z,100663.41
2022-12-29T19:05:00.765Z,100692.47
2022-12-29T19:07:43.467Z,100717.34
2022-12-29T19:10:25.334Z,100738.47
2022-12-29T19:13:06.627Z,100754.34
2022-12-29T19:15:47.921Z,100768.38
2022-12-29T19:18:48.718Z,100778.69
2022-12-29T19:21:29.723Z,100786.63
2022-12-29T19:24:09.496Z,100775.47
2022-12-29T19:26:51.296Z,100777.53
2022-12-29T19:29:32.273Z,100781.97
2022-12-29T19:32:12.092Z,100779.91
2022-12-29T19:34:51.894Z,100778.94
2022-12-29T19:37:41.481Z,100776.56
2022-12-29T19:40:23.695Z,100763.94
2022-12-29T19:43:02.499Z,100754.91
2022-12-29T19:45:42.645Z,100733.50
2022-12-29T19:48:23.796Z,100712.94
2022-12-29T19:51:07.515Z,100691.56
2022-12-29T19:53:48.200Z,100661.41
2022-12-29T19:56:28.263Z,100609.81
2022-12-29T19:59:09.397Z,100570.75
2022-12-29T20:01:52.248Z,100545.00
2022-12-29T20:04:32.296Z,100503.00
2022-12-29T20:07:24.411Z,100473.22
2022-12-29T20:10:09.551Z,100440.81
2022-12-29T20:12:49.769Z,100411.34
2022-12-29T20:15:31.662Z,100387.69
2022-12-29T20:18:15.296Z,100357.91
2022-12-29T20:20:55.706Z,100336.22
2022-12-29T20:23:41.718Z,100309.38
2022-12-29T20:26:24.775Z,100314.13
2022-12-29T20:29:04.637Z,100289.91
2022-12-29T20:31:44.444Z,100275.44
2022-12-29T20:34:24.440Z,100252.94
2022-12-29T20:37:05.705Z,100244.75
2022-12-29T20:39:45.495Z,100228.06
2022-12-29T20:42:27.519Z,100226.25
2022-12-29T20:45:09.507Z,100216.94
2022-12-29T20:47:59.808Z,100212.06
2022-12-29T20:50:59.215Z,100206.38
2022-12-29T20:53:39.030Z,100209.03
2022-12-29T20:56:21.216Z,100209.56
2022-12-29T20:59:29.077Z,100219.69
2022-12-29T21:02:13.472Z,100223.59
2022-12-29T21:07:54.060Z,100257.50
2022-12-29T21:10:31.833Z,100264.72
2022-12-29T21:13:11.896Z,100277.50
2022-12-29T21:15:52.179Z,100282.34
2022-12-29T21:18:33.306Z,100293.59
2022-12-29T21:21:15.429Z,100316.13
2022-12-29T21:23:56.003Z,100314.22
2022-12-29T21:26:36.186Z,100327.13
2022-12-29T21:29:17.119Z,100337.69
2022-12-29T21:32:05.603Z,100359.78
2022-12-29T21:34:46.363Z,100376.31
2022-12-29T21:37:26.171Z,100404.38
2022-12-29T21:40:06.687Z,100408.69
2022-12-29T21:42:49.434Z,100415.38
2022-12-29T21:45:32.629Z,100415.38
2022-12-29T21:48:23.801Z,100395.78
2022-12-29T21:51:30.349Z,100384.38
2022-12-29T21:54:29.017Z,100362.28
2022-12-29T21:57:08.891Z,100346.44
2022-12-29T22:00:06.425Z,100337.56
2022-12-29T22:03:07.183Z,100311.84
2022-12-29T22:06:05.827Z,100289.88
2022-12-29T22:09:03.349Z,100275.72
2022-12-29T22:12:00.713Z,100269.59
2022-12-29T22:14:42.089Z,100244.03
2022-12-29T22:17:28.667Z,100234.56
2022-12-29T22:20:11.772Z,100201.78
2022-12-29T22:22:54.774Z,100194.69
2022-12-29T22:25:38.843Z,100179.81
2022-12-29T22:28:32.537Z,100168.28
2022-12-29T22:31:25.014Z,100161.31
2022-12-29T22:34:06.088Z,100154.38
2022-12-29T22:36:45.901Z,100155.94
2022-12-29T22:39:25.835Z,100141.19
2022-12-29T22:42:05.843Z,100147.44
2022-12-29T22:44:46.889Z,100140.34
2022-12-29T22:47:26.930Z,100135.22
2022-12-29T22:50:08.591Z,100142.31
2022-12-29T22:52:49.665Z,100144.94
2022-12-29T22:55:29.340Z,100141.47
2022-12-29T22:58:09.159Z,100154.66
2022-12-29T23:00:48.926Z,100159.81
2022-12-29T23:03:29.579Z,100150.06
2022-12-29T23:06:09.075Z,100139.38
2022-12-29T23:08:49.992Z,100135.22
2022-12-29T23:11:32.000Z,100127.97
2022-12-29T23:14:12.785Z,100128.81
2022-12-29T23:16:52.618Z,100130.63
2022-12-29T23:19:32.466Z,100127.97
2022-12-29T23:22:12.212Z,100123.38
2022-12-29T23:24:52.009Z,100128.66
2022-12-29T23:27:33.320Z,100127.00
2022-12-29T23:30:13.450Z,100124.09
2022-12-29T23:32:54.784Z,100112.56
2022-12-29T23:35:32.579Z,100103.53
2022-12-29T23:38:12.655Z,100094.47
2022-12-29T23:40:52.505Z,100090.03
2022-12-29T23:43:32.324Z,100084.75
2022-12-29T23:46:12.856Z,100089.19
2022-12-29T23:48:53.617Z,100077.94
2022-12-29T23:51:33.346Z,100082.94
2022-12-29T23:54:13.111Z,100080.44
2022-12-29T23:56:54.928Z,100073.88
2022-12-29T23:59:35.891Z,100082.78
